Data for 10/15/2014

Time Sea-Level Adjusted Pressure Absolute Pressure Temperature Relative Humidity Dew Point   
(mb) (inHg) (mb) (inHg) (C) (F) (%) (C) (F)
00:05 1012 29.88 842 24.86 11.6 52.8 36 -2.8 26.9
00:10 1012 29.88 842 24.86 12 53.6 31 -4.4 24.1
00:15 1013 29.91 842 24.86 12.7 54.9 32 -3.5 25.6
00:20 1012 29.88 842 24.86 12.3 54.1 34 -3.2 26.2
00:25 1012 29.88 842 24.86 12.1 53.7 32 -4.1 24.7
00:30 1012 29.88 842 24.86 11.8 53.2 36 -2.7 27.1
00:35 1012 29.88 841 24.83 11.2 52.2 37 -2.8 26.9
00:40 1012 29.88 842 24.86 10.9 51.5 37 -3.1 26.4
00:45 1012 29.88 841 24.83 11.3 52.4 34 -4.1 24.6
00:50 1012 29.88 841 24.83 12.2 53.9 33 -3.6 25.4
00:55 1012 29.88 841 24.83 12 53.6 35 -2.9 26.8
01:00 1012 29.88 841 24.83 11.4 52.4 36 -3 26.5
01:05 1012 29.88 841 24.83 11.2 52.1 35 -3.7 25.4
01:10 1012 29.88 841 24.83 11.6 52.9 34 -3.8 25.2
01:15 1012 29.88 841 24.83 11.8 53.3 33 -3.8 25.2
01:20 1012 29.88 841 24.83 11.7 53.1 35 -3.3 26
01:25 1012 29.88 841 24.83 11.6 53 34 -3.7 25.3
01:30 1012 29.88 841 24.83 11.9 53.4 33 -4 24.8
01:35 1012 29.88 841 24.83 12.5 54.6 32 -3.8 25.2
01:40 1012 29.88 841 24.83 12.4 54.2 32 -3.6 25.5
01:45 1012 29.88 841 24.83 12.7 54.9 32 -3.4 25.9
01:50 1012 29.88 841 24.83 12.8 55 31 -3.8 25.2
01:55 1012 29.88 841 24.83 12.5 54.6 32 -3.5 25.6
02:00 1012 29.88 841 24.83 12.5 54.5 33 -3.4 26
02:05 1011 29.85 841 24.83 12.3 54.2 33 -3.5 25.6
02:10 1011 29.85 841 24.83 12.6 54.8 33 -3.3 26
02:15 1011 29.85 841 24.83 12.7 54.8 32 -3.6 25.6
02:20 1011 29.85 841 24.83 12.8 55.1 32 -3.3 26
02:25 1011 29.85 841 24.83 12.9 55.2 32 -3.3 26
02:30 1011 29.85 841 24.83 12.9 55.2 32 -3.4 25.8
02:35 1011 29.85 841 24.83 13 55.5 31 -3.5 25.6
02:40 1011 29.85 841 24.83 13.1 55.6 32 -3.3 26.1
02:45 1011 29.85 840 24.81 13.1 55.6 32 -3.3 26.1
02:50 1011 29.85 840 24.81 13.1 55.6 31 -3.4 25.8
02:55 1011 29.85 840 24.81 13.2 55.8 31 -3.4 25.9
03:00 1011 29.85 840 24.81 13.4 56 31 -3.4 25.8
03:05 1011 29.85 840 24.81 13.4 56.2 31 -3.3 26
03:10 1011 29.85 840 24.81 13.4 56 31 -3.3 26.1
03:15 1011 29.85 840 24.81 13.5 56.2 31 -3.4 25.8
03:20 1011 29.85 840 24.81 13.5 56.2 31 -3.3 26.1
03:25 1011 29.85 840 24.81 13.4 56.1 31 -3.3 26.1
03:30 1011 29.85 840 24.81 13.5 56.2 31 -3.2 26.2
03:35 1011 29.85 840 24.81 13.4 56.1 31 -3.3 26
03:40 1011 29.85 840 24.81 13.4 56.1 32 -3.1 26.5
03:45 1011 29.85 840 24.81 13.1 55.5 32 -3.2 26.3
03:50 1011 29.85 840 24.81 13.1 55.5 32 -3.3 26.1
03:55 1010 29.83 840 24.81 13 55.4 32 -3.1 26.5
04:00 1010 29.83 840 24.81 13 55.4 31 -3.6 25.5
04:05 1010 29.83 840 24.81 13.3 56 31 -3.2 26.3
04:10 1010 29.83 839 24.78 13.1 55.6 32 -3.3 26
04:15 1010 29.83 839 24.78 13.3 55.9 31 -3.3 26
04:20 1010 29.83 839 24.78 13.2 55.8 32 -3.3 26.1
04:25 1010 29.83 839 24.78 13.2 55.7 31 -3.3 26
04:30 1010 29.83 839 24.78 13.3 55.9 31 -3.3 26.1
04:35 1010 29.83 839 24.78 13.3 55.9 31 -3.2 26.2
04:40 1010 29.83 839 24.78 13.4 56.1 32 -3.1 26.5
04:45 1010 29.83 839 24.78 13.3 55.9 31 -3.3 26.1
04:50 1010 29.83 840 24.81 13.3 55.9 31 -3.2 26.2
04:55 1010 29.83 840 24.81 13.6 56.4 30 -3.4 25.9
05:00 1010 29.83 839 24.78 13.7 56.7 31 -3.2 26.2
05:05 1010 29.83 839 24.78 13.9 57.1 29 -3.5 25.6
05:10 1010 29.83 839 24.78 14.2 57.5 30 -3.1 26.4
05:15 1010 29.83 839 24.78 14.4 57.9 29 -3.4 25.9
05:20 1010 29.83 839 24.78 14.3 57.7 30 -3.1 26.4
05:25 1010 29.83 839 24.78 13.9 57 31 -2.9 26.8
05:30 1010 29.83 839 24.78 13.9 57 31 -3.1 26.5
05:35 1010 29.83 839 24.78 13.7 56.7 31 -3.1 26.4
05:40 1010 29.83 839 24.78 13.6 56.4 31 -3 26.6
05:45 1010 29.83 840 24.81 13.6 56.5 31 -3 26.5
05:50 1010 29.83 840 24.81 13.5 56.2 31 -3.1 26.5
05:55 1010 29.83 840 24.81 13.5 56.3 32 -3 26.7
06:00 1010 29.83 840 24.81 13.4 56 33 -2.4 27.7
06:05 1010 29.83 840 24.81 13 55.4 33 -2.9 26.8
06:10 1010 29.83 839 24.78 13 55.4 33 -2.7 27.1
06:15 1010 29.83 840 24.81 12.9 55.2 33 -2.9 26.7
06:20 1010 29.83 840 24.81 13.2 55.7 32 -3.2 26.3
06:25 1010 29.83 839 24.78 13.3 55.9 32 -2.9 26.7
06:30 1010 29.83 839 24.78 13.4 56 32 -2.9 26.8
06:35 1010 29.83 839 24.78 13.4 56.1 31 -3.4 25.9
06:40 1010 29.83 839 24.78 14 57.3 29 -3.7 25.3
06:45 1010 29.83 839 24.78 14.5 58.1 30 -2.6 27.3
06:50 1010 29.83 839 24.78 13.6 56.4 31 -3.3 26
06:55 1010 29.83 839 24.78 14.1 57.3 28 -3.9 25
07:00 1010 29.83 839 24.78 14.3 57.7 30 -2.8 27
07:05 1010 29.83 839 24.78 14.1 57.4 30 -3.3 26.1
07:10 1010 29.83 839 24.78 14.1 57.4 31 -2.6 27.3
07:15 1010 29.83 839 24.78 13.7 56.7 29 -3.9 25
07:20 1010 29.83 839 24.78 14.6 58.3 28 -3.6 25.5
07:25 1010 29.83 839 24.78 15.6 60 25 -4.3 24.3
07:30 1010 29.83 839 24.78 15.9 60.7 25 -3.8 25.2
07:35 1010 29.83 839 24.78 15.8 60.4 26 -3.4 25.9
07:40 1010 29.83 839 24.78 15.2 59.3 29 -2.8 27
07:45 1010 29.83 839 24.78 14.8 58.6 27 -4 24.8
07:50 1010 29.83 839 24.78 15.4 59.6 26 -4 24.7
07:55 1010 29.83 839 24.78 15.5 59.9 27 -3.3 26.1
08:00 1009 29.8 839 24.78 15.1 59.2 28 -3.3 26
08:05 1009 29.8 839 24.78 15.2 59.4 27 -3.7 25.3
08:10 1009 29.8 839 24.78 15.6 60.1 27 -3.4 25.8
08:15 1010 29.83 839 24.78 15.4 59.6 28 -3 26.6
08:20 1010 29.83 839 24.78 15 59 30 -2.1 28.2
08:25 1010 29.83 839 24.78 15.2 59.3 28 -3.4 26
08:30 1010 29.83 839 24.78 15.5 59.9 30 -1.9 28.5
08:35 1009 29.8 839 24.78 15.7 60.3 26 -3.7 25.3
08:40 1009 29.8 839 24.78 15.8 60.4 26 -3.8 25.1
08:45 1009 29.8 839 24.78 15.7 60.3 27 -3.2 26.3
08:50 1009 29.8 838 24.75 15.6 60 27 -3.1 26.5
08:55 1009 29.8 839 24.78 15.5 59.8 28 -3 26.6
09:00 1009 29.8 839 24.78 16.1 60.9 27 -2.7 27.1
09:05 1009 29.8 838 24.75 16.1 61 26 -3.2 26.2
09:10 1009 29.8 838 24.75 16.3 61.3 27 -2.9 26.8
09:15 1009 29.8 838 24.75 16.5 61.6 27 -2.6 27.4
09:20 1009 29.8 838 24.75 16.5 61.7 25 -3.5 25.8
09:25 1009 29.8 838 24.75 16.7 62.1 26 -2.8 27
09:30 1009 29.8 838 24.75 17.4 63.2 22 -4.3 24.2
09:35 1009 29.8 838 24.75 18.5 65.3 17 -6.7 20
09:40 1009 29.8 838 24.75 18.9 65.9 18 -5.8 21.5
09:45 1009 29.8 838 24.75 18.9 66.1 18 -5.5 22.2
09:50 1009 29.8 838 24.75 18.9 66 18 -5.9 21.3
09:55 1009 29.8 838 24.75 19 66.3 17 -6.4 20.5
10:00 1009 29.8 838 24.75 19.2 66.6 18 -5.5 22.1
10:05 1009 29.8 838 24.75 19.4 66.8 18 -5.7 21.7
10:10 1009 29.8 838 24.75 19.5 67 18 -5.4 22.3
10:15 1009 29.8 838 24.75 19.5 67 16 -6.7 20
10:20 1009 29.8 838 24.75 19.5 67.2 17 -6.1 21
10:25 1009 29.8 838 24.75 19.6 67.3 16 -6.8 19.8
10:30 1009 29.8 838 24.75 19.7 67.5 15 -7.2 19.1
10:35 1009 29.8 838 24.75 19.8 67.6 17 -5.6 21.9
10:40 1009 29.8 838 24.75 19.8 67.7 17 -5.9 21.4
10:45 1008 29.77 838 24.75 20 67.9 16 -6.3 20.7
10:50 1008 29.77 838 24.75 20 68 16 -6.2 20.8
10:55 1008 29.77 838 24.75 19.9 67.9 17 -5.9 21.5
11:00 1008 29.77 838 24.75 19.9 67.7 16 -6.4 20.5
11:05 1008 29.77 838 24.75 20 68 17 -5.8 21.6
11:10 1008 29.77 838 24.75 20.1 68.2 15 -7.2 19
11:15 1008 29.77 838 24.75 20.3 68.5 17 -5.8 21.5
11:20 1008 29.77 838 24.75 20.3 68.6 15 -7.1 19.3
11:25 1009 29.8 838 24.75 20.2 68.3 17 -5.6 21.8
11:30 1009 29.8 838 24.75 20.1 68.3 15 -7.1 19.3
11:35 1009 29.8 838 24.75 20.2 68.4 16 -6 21.2
11:40 1009 29.8 838 24.75 20.4 68.7 15 -6.7 20
11:45 1009 29.8 838 24.75 20.6 69.1 15 -6.6 20
11:50 1008 29.77 838 24.75 20.8 69.4 15 -6.7 20
11:55 1008 29.77 838 24.75 21 69.7 15 -6.9 19.6
12:00 1008 29.77 837 24.72 20.8 69.4 15 -7 19.4
12:05 1008 29.77 838 24.75 20.8 69.4 14 -7.5 18.6
12:10 1008 29.77 837 24.72 21 69.8 15 -6.5 20.3
12:15 1008 29.77 837 24.72 20.7 69.3 16 -6.3 20.7
12:20 1008 29.77 837 24.72 20.7 69.2 15 -6.8 19.8
12:25 1008 29.77 837 24.72 20.5 68.8 15 -7 19.4
12:30 1008 29.77 837 24.72 20.4 68.8 15 -6.9 19.6
12:35 1008 29.77 837 24.72 20.3 68.5 16 -6 21.2
12:40 1008 29.77 837 24.72 20.4 68.7 15 -6.6 20.2
12:45 1008 29.77 837 24.72 20.8 69.4 14 -7.4 18.7
12:50 1008 29.77 837 24.72 20.6 69.1 15 -7.1 19.3
12:55 1008 29.77 837 24.72 20.7 69.3 15 -6.6 20.2
13:00 1008 29.77 837 24.72 20.7 69.2 15 -6.6 20.1
13:05 1008 29.77 837 24.72 20.4 68.7 15 -6.9 19.5
13:10 1008 29.77 837 24.72 20.4 68.7 16 -6.3 20.7
13:15 1008 29.77 837 24.72 20.8 69.4 15 -6.9 19.5
13:20 1007 29.74 837 24.72 21.1 69.9 15 -6.3 20.7
13:25 1007 29.74 837 24.72 20.8 69.5 15 -6.4 20.4
13:30 1007 29.74 836 24.69 20.8 69.4 15 -6.6 20.1
13:35 1007 29.74 836 24.69 20.9 69.6 15 -6.9 19.5
13:40 1007 29.74 836 24.69 20.6 69 15 -6.8 19.8
13:45 1007 29.74 836 24.69 20.7 69.2 15 -6.5 20.3
13:50 1007 29.74 836 24.69 20.8 69.5 15 -6.5 20.3
13:55 1007 29.74 836 24.69 20.8 69.4 15 -6.5 20.3
14:00 1007 29.74 836 24.69 20.8 69.4 15 -6.5 20.3
14:05 1007 29.74 836 24.69 20.7 69.3 15 -6.8 19.8
14:10 1007 29.74 836 24.69 20.7 69.2 15 -6.5 20.3
14:15 1007 29.74 836 24.69 20.9 69.5 15 -7 19.5
14:20 1007 29.74 836 24.69 20.8 69.5 15 -6.9 19.6
14:25 1007 29.74 836 24.69 20.7 69.2 14 -7.7 18.1
14:30 1007 29.74 836 24.69 20.7 69.3 15 -6.9 19.6
14:35 1007 29.74 836 24.69 20.8 69.5 13 -8.5 16.8
14:40 1007 29.74 836 24.69 20.6 69.1 14 -7.6 18.4
14:45 1007 29.74 836 24.69 20.6 69.1 14 -7.4 18.6
14:50 1007 29.74 836 24.69 20.7 69.2 13 -8.4 16.9
14:55 1007 29.74 836 24.69 20.7 69.2 14 -7.8 17.9
15:00 1007 29.74 836 24.69 20.7 69.2 14 -7.5 18.6
15:05 1007 29.74 836 24.69 20.7 69.2 14 -7.5 18.5
15:10 1007 29.74 836 24.69 20.8 69.4 13 -8.4 17
15:15 1007 29.74 836 24.69 20.7 69.3 14 -7.8 17.9
15:20 1007 29.74 836 24.69 20.6 69.1 13 -8.4 16.9
15:25 1007 29.74 836 24.69 20.3 68.5 15 -7.4 18.7
15:30 1007 29.74 836 24.69 19.9 67.9 14 -8.1 17.5
15:35 1007 29.74 836 24.69 19.9 67.8 13 -9 15.8
15:40 1007 29.74 836 24.69 19.5 67.2 13 -9.5 14.8
15:45 1007 29.74 836 24.69 19.4 67 14 -8.7 16.3
15:50 1007 29.74 836 24.69 19.2 66.6 14 -8.8 16.1
15:55 1007 29.74 836 24.69 19.1 66.5 15 -8.3 17.1
16:00 1007 29.74 836 24.69 19 66.3 15 -8.1 17.3
16:05 1007 29.74 836 24.69 19 66.2 14 -9.1 15.5
16:10 1007 29.74 836 24.69 19 66.2 15 -8 17.6
16:15 1007 29.74 837 24.72 18.8 65.9 16 -7.8 17.9
16:20 1008 29.77 837 24.72 18.6 65.5 16 -7.6 18.3
16:25 1008 29.77 837 24.72 18.5 65.4 17 -7.1 19.2
16:30 1008 29.77 837 24.72 18 64.3 20 -4.9 23.1
16:35 1008 29.77 837 24.72 17.4 63.3 19 -6 21.1
16:40 1008 29.77 838 24.75 17.3 63.1 21 -5.1 22.8
16:45 1009 29.8 838 24.75 17 62.5 23 -4.4 24.1
16:50 1009 29.8 838 24.75 16.6 61.8 24 -3.8 25.1
16:55 1009 29.8 838 24.75 16.3 61.3 25 -3.7 25.3
17:00 1009 29.8 838 24.75 16.2 61.2 24 -4.4 24.1
17:05 1009 29.8 838 24.75 16.4 61.5 23 -4.6 23.7
17:10 1009 29.8 838 24.75 16.5 61.7 25 -3.7 25.4
17:15 1010 29.83 839 24.78 15.5 59.8 33 -0.6 31
17:20 1010 29.83 839 24.78 14.2 57.6 37 -0.1 31.9
17:25 1011 29.85 840 24.81 13.5 56.3 43 1.4 34.4
17:30 1011 29.85 840 24.81 12.6 54.6 46 1.3 34.3
17:35 1011 29.85 841 24.83 12.2 53.9 47 1.1 34.1
17:40 1012 29.88 841 24.83 12.1 53.7 48 1.6 34.9
17:45 1012 29.88 841 24.83 12 53.5 50 1.9 35.4
17:50 1012 29.88 841 24.83 11.8 53.3 53 2.5 36.5
17:55 1012 29.88 841 24.83 11.3 52.3 52 1.9 35.4
18:00 1012 29.88 841 24.83 10.8 51.4 51 1.1 34
18:05 1012 29.88 841 24.83 10.5 50.9 53 1.3 34.3
18:10 1012 29.88 842 24.86 10.2 50.3 51 0.5 32.9
18:15 1013 29.91 842 24.86 10.1 50.2 50 0.1 32.3
18:20 1013 29.91 842 24.86 10.1 50.2 46 -1 30.3
18:25 1013 29.91 842 24.86 10.2 50.3 43 -1.7 29
18:30 1013 29.91 842 24.86 10.2 50.3 42 -2.2 28
18:35 1014 29.94 843 24.89 10.2 50.4 42 -2.2 28.1
18:40 1014 29.94 843 24.89 10.1 50.2 41 -2.3 27.8
18:45 1014 29.94 843 24.89 10 50 44 -1.7 28.9
18:50 1014 29.94 843 24.89 9.8 49.6 43 -2.2 28.1
18:55 1014 29.94 843 24.89 9.6 49.3 45 -1.6 29
19:00 1014 29.94 843 24.89 9.3 48.8 48 -1.2 29.8
19:05 1014 29.94 843 24.89 8.9 48 50 -0.9 30.4
19:10 1014 29.94 843 24.89 8.6 47.5 52 -0.8 30.6
19:15 1013 29.91 843 24.89 8.4 47.1 52 -0.9 30.3
19:20 1013 29.91 843 24.89 8.4 47.1 51 -1.1 30
19:25 1013 29.91 843 24.89 8.5 47.3 47 -2.1 28.3
19:30 1013 29.91 843 24.89 8.8 47.8 46 -2.2 28
19:35 1013 29.91 843 24.89 8.8 47.9 46 -2.1 28.1
19:40 1014 29.94 843 24.89 8.8 47.9 46 -2 28.4
19:45 1014 29.94 843 24.89 8.9 47.9 46 -2.1 28.3
19:50 1014 29.94 843 24.89 9 48.2 46 -1.9 28.6
19:55 1014 29.94 843 24.89 9 48.2 47 -1.7 28.9
20:00 1014 29.94 843 24.89 8.9 48.1 48 -1.5 29.2
20:05 1014 29.94 843 24.89 8.9 48.1 47 -1.6 29.1
20:10 1014 29.94 844 24.92 9.2 48.5 47 -1.6 29
20:15 1015 29.97 844 24.92 8.2 46.8 68 2.7 36.9
20:20 1015 29.97 845 24.95 6.4 43.6 75 2.3 36.1
20:25 1015 29.97 845 24.95 6 42.8 75 1.9 35.5
20:30 1016 30 845 24.95 6 42.8 74 1.8 35.2
20:35 1016 30 845 24.95 6 42.7 76 2 35.6
20:40 1016 30 845 24.95 5.9 42.6 77 2.2 35.9
20:45 1016 30 845 24.95 5.9 42.6 74 1.7 35
20:50 1016 30 845 24.95 5.9 42.6 72 1.3 34.4
20:55 1016 30 845 24.95 6.1 43 71 1.3 34.3
21:00 1016 30 845 24.95 6.2 43.2 71 1.3 34.3
21:05 1016 30 845 24.95 6.2 43.2 70 1.2 34.2
21:10 1016 30 845 24.95 6.1 43.1 72 1.5 34.8
21:15 1016 30 845 24.95 5.5 41.9 76 1.7 35.1
21:20 1016 30 845 24.95 5.2 41.4 77 1.6 34.8
21:25 1016 30 845 24.95 5.2 41.4 78 1.7 35
21:30 1016 30 845 24.95 5.2 41.3 77 1.5 34.7
21:35 1016 30 845 24.95 5.2 41.3 77 1.4 34.5
21:40 1016 30 845 24.95 5.3 41.5 76 1.4 34.5
21:45 1016 30 846 24.98 5.4 41.7 75 1.4 34.5
21:50 1016 30 845 24.95 5.4 41.8 76 1.5 34.8
21:55 1016 30 845 24.95 5.5 41.8 77 1.8 35.3
22:00 1016 30 846 24.98 5.2 41.4 77 1.6 34.8
22:05 1016 30 846 24.98 5.2 41.3 77 1.4 34.6
22:10 1017 30.03 846 24.98 5.4 41.7 74 1.2 34.1
22:15 1017 30.03 846 24.98 5.5 42 73 1 33.8
22:20 1017 30.03 846 24.98 5.7 42.2 74 1.4 34.4
22:25 1017 30.03 846 24.98 5.8 42.5 71 1.1 33.9
22:30 1017 30.03 846 24.98 5.6 42.2 75 1.6 34.9
22:35 1017 30.03 846 24.98 5.3 41.6 75 1.3 34.3
22:40 1017 30.03 846 24.98 5.2 41.3 77 1.4 34.5
22:45 1017 30.03 846 24.98 5.3 41.5 72 0.6 33.2
22:50 1017 30.03 846 24.98 5.6 42.1 70 0.6 33.1
22:55 1017 30.03 846 24.98 5.9 42.6 70 0.8 33.5
23:00 1017 30.03 846 24.98 5.9 42.6 70 0.9 33.6
23:05 1017 30.03 847 25.01 5.9 42.6 70 0.8 33.5
23:10 1017 30.03 847 25.01 6 42.7 70 0.8 33.5
23:15 1017 30.03 847 25.01 6 42.8 69 0.8 33.5
23:20 1018 30.06 847 25.01 6 42.7 69 0.7 33.3
23:25 1018 30.06 847 25.01 6 42.7 67 0.4 32.7
23:30 1018 30.06 847 25.01 5.9 42.7 71 1 33.8
23:35 1018 30.06 847 25.01 5.7 42.3 70 0.7 33.2
23:40 1018 30.06 847 25.01 5.7 42.3 68 0.2 32.4
23:45 1018 30.06 847 25.01 5.7 42.3 73 1.3 34.4
23:50 1018 30.06 847 25.01 5.5 41.9 63 -0.9 30.4
23:55 1018 30.06 847 25.01 6 42.8 56 -2 28.4
24:00 1018 30.06 847 25.01 6.6 44 50 -3 26.7